sensor_id;sensor_type;location;lat;lon;timestamp;pressure;altitude;pressure_sealevel;temperature;humidity
69187;BME280;56301;56.864;60.554;2023-12-29T00:01:35;95775.34;;;26.45;25.99
69187;BME280;56301;56.864;60.554;2023-12-29T00:03:57;95784.91;;;26.48;26.02
69187;BME280;56301;56.864;60.554;2023-12-29T00:06:20;95778.66;;;26.47;25.68
69187;BME280;56301;56.864;60.554;2023-12-29T00:08:42;95781.59;;;26.46;26.33
69187;BME280;56301;56.864;60.554;2023-12-29T00:11:05;95777.00;;;26.46;25.68
69187;BME280;56301;56.864;60.554;2023-12-29T00:13:27;95759.09;;;26.45;26.80
69187;BME280;56301;56.864;60.554;2023-12-29T00:15:53;95758.28;;;26.45;25.58
69187;BME280;56301;56.864;60.554;2023-12-29T00:18:15;95762.91;;;26.44;26.33
69187;BME280;56301;56.864;60.554;2023-12-29T00:20:38;95764.78;;;26.44;26.13
69187;BME280;56301;56.864;60.554;2023-12-29T00:23:00;95763.97;;;26.43;25.76
69187;BME280;56301;56.864;60.554;2023-12-29T00:25:23;95764.22;;;26.41;25.45
69187;BME280;56301;56.864;60.554;2023-12-29T00:27:45;95767.75;;;26.42;25.70
69187;BME280;56301;56.864;60.554;2023-12-29T00:30:08;95765.03;;;26.42;25.09
69187;BME280;56301;56.864;60.554;2023-12-29T00:32:31;95761.53;;;26.41;24.83
69187;BME280;56301;56.864;60.554;2023-12-29T00:34:53;95754.19;;;26.42;25.60
69187;BME280;56301;56.864;60.554;2023-12-29T00:37:16;95754.19;;;26.42;26.10
69187;BME280;56301;56.864;60.554;2023-12-29T00:39:39;95749.59;;;26.42;25.70
69187;BME280;56301;56.864;60.554;2023-12-29T00:42:01;95754.19;;;26.42;25.02
69187;BME280;56301;56.864;60.554;2023-12-29T00:44:24;95748.78;;;26.42;25.22
69187;BME280;56301;56.864;60.554;2023-12-29T00:46:46;95736.84;;;26.43;25.01
69187;BME280;56301;56.864;60.554;2023-12-29T00:49:09;95746.63;;;26.44;25.16
69187;BME280;56301;56.864;60.554;2023-12-29T00:51:32;95757.47;;;26.44;25.03
69187;BME280;56301;56.864;60.554;2023-12-29T00:53:54;95755.56;;;26.45;25.31
69187;BME280;56301;56.864;60.554;2023-12-29T00:56:17;95749.34;;;26.44;25.50
69187;BME280;56301;56.864;60.554;2023-12-29T00:58:39;95744.72;;;26.45;25.65
69187;BME280;56301;56.864;60.554;2023-12-29T01:01:02;95742.81;;;26.45;24.89
69187;BME280;56301;56.864;60.554;2023-12-29T01:03:24;95753.66;;;26.45;25.53
69187;BME280;56301;56.864;60.554;2023-12-29T01:05:47;95744.72;;;26.45;25.34
69187;BME280;56301;56.864;60.554;2023-12-29T01:08:09;95752.84;;;26.45;24.76
69187;BME280;56301;56.864;60.554;2023-12-29T01:10:32;95737.41;;;26.45;25.01
69187;BME280;56301;56.864;60.554;2023-12-29T01:12:55;95736.59;;;26.45;24.25
69187;BME280;56301;56.864;60.554;2023-12-29T01:15:17;95741.19;;;26.44;23.48
69187;BME280;56301;56.864;60.554;2023-12-29T01:17:40;95745.81;;;26.44;24.01
69187;BME280;56301;56.864;60.554;2023-12-29T01:20:02;95735.78;;;26.44;23.67
69187;BME280;56301;56.864;60.554;2023-12-29T01:22:25;95735.78;;;26.44;23.77
69187;BME280;56301;56.864;60.554;2023-12-29T01:24:47;95739.56;;;26.43;23.64
69187;BME280;56301;56.864;60.554;2023-12-29T01:27:10;95738.75;;;26.42;23.48
69187;BME280;56301;56.864;60.554;2023-12-29T01:29:33;95734.13;;;26.43;24.57
69187;BME280;56301;56.864;60.554;2023-12-29T01:31:55;95738.75;;;26.42;23.81
69187;BME280;56301;56.864;60.554;2023-12-29T01:34:18;95727.09;;;26.42;24.01
69187;BME280;56301;56.864;60.554;2023-12-29T01:36:40;95736.31;;;26.41;24.22
69187;BME280;56301;56.864;60.554;2023-12-29T01:39:03;95729.00;;;26.41;24.17
69187;BME280;56301;56.864;60.554;2023-12-29T01:41:25;95728.19;;;26.41;25.20
69187;BME280;56301;56.864;60.554;2023-12-29T01:44:33;95725.47;;;26.41;24.85
69187;BME280;56301;56.864;60.554;2023-12-29T01:46:33;95722.75;;;26.41;24.98
69187;BME280;56301;56.864;60.554;2023-12-29T01:48:57;95723.00;;;26.39;25.40
69187;BME280;56301;56.864;60.554;2023-12-29T01:51:20;95726.00;;;26.38;24.39
69187;BME280;56301;56.864;60.554;2023-12-29T01:53:44;95723.56;;;26.36;23.00
69187;BME280;56301;56.864;60.554;2023-12-29T01:56:07;95719.50;;;26.34;22.92
69187;BME280;56301;56.864;60.554;2023-12-29T01:58:30;95723.28;;;26.33;22.57
69187;BME280;56301;56.864;60.554;2023-12-29T02:00:52;95720.03;;;26.31;22.35
69187;BME280;56301;56.864;60.554;2023-12-29T02:03:15;95716.75;;;26.29;22.27
69187;BME280;56301;56.864;60.554;2023-12-29T02:05:38;95708.09;;;26.27;22.46
69187;BME280;56301;56.864;60.554;2023-12-29T02:08:01;95701.06;;;26.26;22.28
69187;BME280;56301;56.864;60.554;2023-12-29T02:10:24;95695.06;;;26.24;22.37
69187;BME280;56301;56.864;60.554;2023-12-29T02:12:49;95696.16;;;26.23;22.22
69187;BME280;56301;56.864;60.554;2023-12-29T02:15:12;95699.94;;;26.22;21.36
69187;BME280;56301;56.864;60.554;2023-12-29T02:17:36;95706.72;;;26.19;21.00
69187;BME280;56301;56.864;60.554;2023-12-29T02:20:00;95701.56;;;26.17;21.66
69187;BME280;56301;56.864;60.554;2023-12-29T02:22:24;95701.81;;;26.16;21.16
69187;BME280;56301;56.864;60.554;2023-12-29T02:24:47;95705.63;;;26.15;21.45
69187;BME280;56301;56.864;60.554;2023-12-29T02:27:18;95696.13;;;26.12;20.88
69187;BME280;56301;56.864;60.554;2023-12-29T02:29:42;95698.28;;;26.10;20.41
69187;BME280;56301;56.864;60.554;2023-12-29T02:32:06;95692.31;;;26.08;20.27
69187;BME280;56301;56.864;60.554;2023-12-29T02:34:32;95689.63;;;26.08;20.08
69187;BME280;56301;56.864;60.554;2023-12-29T02:36:55;95691.75;;;26.06;20.89
69187;BME280;56301;56.864;60.554;2023-12-29T02:39:20;95684.72;;;26.05;22.08
69187;BME280;56301;56.864;60.554;2023-12-29T02:41:42;95688.53;;;26.04;21.21
69187;BME280;56301;56.864;60.554;2023-12-29T02:44:05;95686.88;;;26.03;21.24
69187;BME280;56301;56.864;60.554;2023-12-29T02:46:28;95685.25;;;26.02;21.48
69187;BME280;56301;56.864;60.554;2023-12-29T02:48:51;95656.53;;;26.01;21.36
69187;BME280;56301;56.864;60.554;2023-12-29T02:51:13;95666.56;;;26.01;22.01
69187;BME280;56301;56.864;60.554;2023-12-29T02:53:36;95670.09;;;26.01;22.56
69187;BME280;56301;56.864;60.554;2023-12-29T02:55:58;95670.09;;;26.01;22.16
69187;BME280;56301;56.864;60.554;2023-12-29T02:58:21;95664.41;;;26.03;22.53
69187;BME280;56301;56.864;60.554;2023-12-29T03:00:44;95665.19;;;26.03;23.14
69187;BME280;56301;56.864;60.554;2023-12-29T03:03:06;95661.16;;;26.06;23.64
69187;BME280;56301;56.864;60.554;2023-12-29T03:05:29;95655.47;;;26.07;23.85
69187;BME280;56301;56.864;60.554;2023-12-29T03:07:51;95663.34;;;26.09;24.26
69187;BME280;56301;56.864;60.554;2023-12-29T03:10:14;95653.88;;;26.11;24.62
69187;BME280;56301;56.864;60.554;2023-12-29T03:12:36;95656.03;;;26.14;23.81
69187;BME280;56301;56.864;60.554;2023-12-29T03:14:59;95655.19;;;26.14;23.88
69187;BME280;56301;56.864;60.554;2023-12-29T03:17:22;95658.19;;;26.17;23.77
69187;BME280;56301;56.864;60.554;2023-12-29T03:19:45;95661.19;;;26.21;24.75
69187;BME280;56301;56.864;60.554;2023-12-29T03:22:07;95659.03;;;26.23;24.08
69187;BME280;56301;56.864;60.554;2023-12-29T03:24:30;95659.56;;;26.25;24.73
69187;BME280;56301;56.864;60.554;2023-12-29T03:26:52;95672.56;;;26.28;25.43
69187;BME280;56301;56.864;60.554;2023-12-29T03:29:15;95667.72;;;26.30;25.45
69187;BME280;56301;56.864;60.554;2023-12-29T03:31:37;95672.03;;;26.31;24.87
69187;BME280;56301;56.864;60.554;2023-12-29T03:34:00;95672.03;;;26.31;24.84
69187;BME280;56301;56.864;60.554;2023-12-29T03:36:22;95669.88;;;26.33;24.86
69187;BME280;56301;56.864;60.554;2023-12-29T03:38:45;95670.69;;;26.34;25.51
69187;BME280;56301;56.864;60.554;2023-12-29T03:41:08;95673.41;;;26.34;25.34
69187;BME280;56301;56.864;60.554;2023-12-29T03:43:30;95666.91;;;26.35;25.53
69187;BME280;56301;56.864;60.554;2023-12-29T03:45:53;95675.59;;;26.37;24.44
69187;BME280;56301;56.864;60.554;2023-12-29T03:48:15;95676.41;;;26.37;24.36
69187;BME280;56301;56.864;60.554;2023-12-29T03:50:38;95669.88;;;26.38;24.22
69187;BME280;56301;56.864;60.554;2023-12-29T03:53:00;95671.50;;;26.39;24.55
69187;BME280;56301;56.864;60.554;2023-12-29T03:55:23;95675.06;;;26.40;23.83
69187;BME280;56301;56.864;60.554;2023-12-29T03:57:45;95673.16;;;26.40;24.56
69187;BME280;56301;56.864;60.554;2023-12-29T04:00:11;95672.06;;;26.41;24.40
69187;BME280;56301;56.864;60.554;2023-12-29T04:02:34;95661.22;;;26.41;24.86
69187;BME280;56301;56.864;60.554;2023-12-29T04:04:57;95676.66;;;26.41;23.97
69187;BME280;56301;56.864;60.554;2023-12-29T04:07:19;95689.13;;;26.42;24.88
69187;BME280;56301;56.864;60.554;2023-12-29T04:09:42;95687.25;;;26.42;24.26
69187;BME280;56301;56.864;60.554;2023-12-29T04:12:04;95683.72;;;26.42;24.35
69187;BME280;56301;56.864;60.554;2023-12-29T04:14:27;95690.75;;;26.43;25.22
69187;BME280;56301;56.864;60.554;2023-12-29T04:16:49;95689.94;;;26.42;25.27
69187;BME280;56301;56.864;60.554;2023-12-29T04:19:12;95689.94;;;26.42;24.54
69187;BME280;56301;56.864;60.554;2023-12-29T04:21:34;95697.03;;;26.44;25.08
69187;BME280;56301;56.864;60.554;2023-12-29T04:23:57;95691.84;;;26.42;24.64
69187;BME280;56301;56.864;60.554;2023-12-29T04:26:19;95695.38;;;26.42;25.54
69187;BME280;56301;56.864;60.554;2023-12-29T04:28:42;95694.56;;;26.42;25.52
69187;BME280;56301;56.864;60.554;2023-12-29T04:31:05;95692.66;;;26.42;25.02
69187;BME280;56301;56.864;60.554;2023-12-29T04:33:27;95701.88;;;26.41;25.16
69187;BME280;56301;56.864;60.554;2023-12-29T04:35:51;95689.13;;;26.42;25.35
69187;BME280;56301;56.864;60.554;2023-12-29T04:38:14;95689.94;;;26.42;24.87
69187;BME280;56301;56.864;60.554;2023-12-29T04:40:37;95698.06;;;26.42;25.81
69187;BME280;56301;56.864;60.554;2023-12-29T04:42:59;95687.25;;;26.42;25.12
69187;BME280;56301;56.864;60.554;2023-12-29T04:45:22;95688.31;;;26.41;25.52
69187;BME280;56301;56.864;60.554;2023-12-29T04:47:44;95686.44;;;26.42;25.37
69187;BME280;56301;56.864;60.554;2023-12-29T04:50:07;95683.72;;;26.42;25.27
69187;BME280;56301;56.864;60.554;2023-12-29T04:52:30;95689.13;;;26.42;25.68
69187;BME280;56301;56.864;60.554;2023-12-29T04:54:52;95673.97;;;26.41;26.07
69187;BME280;56301;56.864;60.554;2023-12-29T04:57:15;95687.53;;;26.41;25.85
69187;BME280;56301;56.864;60.554;2023-12-29T04:59:37;95687.53;;;26.41;26.48
69187;BME280;56301;56.864;60.554;2023-12-29T05:02:00;95684.81;;;26.41;25.65
69187;BME280;56301;56.864;60.554;2023-12-29T05:04:22;95691.31;;;26.40;26.04
69187;BME280;56301;56.864;60.554;2023-12-29T05:06:45;95687.53;;;26.41;26.31
69187;BME280;56301;56.864;60.554;2023-12-29T05:09:07;95684.00;;;26.40;26.12
69187;BME280;56301;56.864;60.554;2023-12-29T05:11:30;95679.38;;;26.41;27.06
69187;BME280;56301;56.864;60.554;2023-12-29T05:13:52;95694.56;;;26.42;27.42
69187;BME280;56301;56.864;60.554;2023-12-29T05:16:15;95686.44;;;26.42;27.58
69187;BME280;56301;56.864;60.554;2023-12-29T05:18:38;95682.09;;;26.41;28.58
69187;BME280;56301;56.864;60.554;2023-12-29T05:21:00;95682.09;;;26.41;27.72
69187;BME280;56301;56.864;60.554;2023-12-29T05:23:23;95677.47;;;26.41;28.73
69187;BME280;56301;56.864;60.554;2023-12-29T05:25:45;95683.72;;;26.42;28.43
69187;BME280;56301;56.864;60.554;2023-12-29T05:28:08;95669.34;;;26.41;28.17
69187;BME280;56301;56.864;60.554;2023-12-29T05:30:30;95665.84;;;26.41;28.88
69187;BME280;56301;56.864;60.554;2023-12-29T05:32:52;95663.94;;;26.41;28.85
69187;BME280;56301;56.864;60.554;2023-12-29T05:35:15;95660.13;;;26.42;28.48
69187;BME280;56301;56.864;60.554;2023-12-29T05:37:37;95660.41;;;26.41;28.40
69187;BME280;56301;56.864;60.554;2023-12-29T05:40:00;95667.44;;;26.42;28.72
69187;BME280;56301;56.864;60.554;2023-12-29T05:42:22;95670.97;;;26.42;29.13
69187;BME280;56301;56.864;60.554;2023-12-29T05:44:45;95669.06;;;26.43;28.78
69187;BME280;56301;56.864;60.554;2023-12-29T05:47:07;95672.88;;;26.42;28.89
69187;BME280;56301;56.864;60.554;2023-12-29T05:49:30;95675.59;;;26.42;28.12
69187;BME280;56301;56.864;60.554;2023-12-29T05:51:52;95673.69;;;26.42;28.70
69187;BME280;56301;56.864;60.554;2023-12-29T05:54:15;95669.06;;;26.43;28.97
69187;BME280;56301;56.864;60.554;2023-12-29T05:56:37;95665.53;;;26.42;28.16
69187;BME280;56301;56.864;60.554;2023-12-29T05:59:00;95658.22;;;26.43;28.50
69187;BME280;56301;56.864;60.554;2023-12-29T06:01:22;95659.06;;;26.44;28.38
69187;BME280;56301;56.864;60.554;2023-12-29T06:03:45;95658.22;;;26.43;28.01
69187;BME280;56301;56.864;60.554;2023-12-29T06:06:07;95657.41;;;26.42;28.40
69187;BME280;56301;56.864;60.554;2023-12-29T06:08:30;95664.47;;;26.44;28.33
69187;BME280;56301;56.864;60.554;2023-12-29T06:10:52;95663.66;;;26.43;28.05
69187;BME280;56301;56.864;60.554;2023-12-29T06:13:15;95670.72;;;26.44;27.75
69187;BME280;56301;56.864;60.554;2023-12-29T06:15:37;95684.28;;;26.44;28.63
69187;BME280;56301;56.864;60.554;2023-12-29T06:18:00;95676.13;;;26.44;28.42
69187;BME280;56301;56.864;60.554;2023-12-29T06:20:22;95663.66;;;26.43;28.78
69187;BME280;56301;56.864;60.554;2023-12-29T06:22:45;95669.91;;;26.44;28.48
69187;BME280;56301;56.864;60.554;2023-12-29T06:25:11;95671.53;;;26.45;28.45
69187;BME280;56301;56.864;60.554;2023-12-29T06:27:34;95687.78;;;26.45;29.01
69187;BME280;56301;56.864;60.554;2023-12-29T06:29:56;95685.91;;;26.45;28.74
69187;BME280;56301;56.864;60.554;2023-12-29T06:32:19;95675.84;;;26.46;28.23
69187;BME280;56301;56.864;60.554;2023-12-29T06:34:41;95683.19;;;26.45;28.93
69187;BME280;56301;56.864;60.554;2023-12-29T06:37:04;95684.84;;;26.46;28.83
69187;BME280;56301;56.864;60.554;2023-12-29T06:39:26;95682.13;;;26.46;29.05
69187;BME280;56301;56.864;60.554;2023-12-29T06:41:49;95679.41;;;26.46;27.96
69187;BME280;56301;56.864;60.554;2023-12-29T06:44:11;95668.56;;;26.46;28.82
69187;BME280;56301;56.864;60.554;2023-12-29T06:46:36;95682.13;;;26.46;28.78
69187;BME280;56301;56.864;60.554;2023-12-29T06:48:59;95672.94;;;26.47;28.67
69187;BME280;56301;56.864;60.554;2023-12-29T06:51:21;95675.63;;;26.47;28.68
69187;BME280;56301;56.864;60.554;2023-12-29T06:53:47;95651.25;;;26.47;27.82
69187;BME280;56301;56.864;60.554;2023-12-29T06:56:13;95674.78;;;26.47;27.58
69187;BME280;56301;56.864;60.554;2023-12-29T06:58:36;95669.38;;;26.47;27.80
69187;BME280;56301;56.864;60.554;2023-12-29T07:00:58;95665.59;;;26.48;28.09
69187;BME280;56301;56.864;60.554;2023-12-29T07:03:21;95661.00;;;26.48;28.91
69187;BME280;56301;56.864;60.554;2023-12-29T07:05:44;95668.84;;;26.50;28.38
69187;BME280;56301;56.864;60.554;2023-12-29T07:08:06;95654.19;;;26.51;28.10
69187;BME280;56301;56.864;60.554;2023-12-29T07:10:29;95653.94;;;26.52;27.81
69187;BME280;56301;56.864;60.554;2023-12-29T07:12:51;95656.66;;;26.52;27.16
69187;BME280;56301;56.864;60.554;2023-12-29T07:15:14;95658.81;;;26.55;27.61
69187;BME280;56301;56.864;60.554;2023-12-29T07:17:36;95658.53;;;26.57;26.56
69187;BME280;56301;56.864;60.554;2023-12-29T07:19:59;95661.00;;;26.58;26.91
69187;BME280;56301;56.864;60.554;2023-12-29T07:22:22;95660.44;;;26.61;26.70
69187;BME280;56301;56.864;60.554;2023-12-29T07:24:45;95667.50;;;26.62;27.04
69187;BME280;56301;56.864;60.554;2023-12-29T07:27:07;95663.69;;;26.63;27.19
69187;BME280;56301;56.864;60.554;2023-12-29T07:29:30;95674.00;;;26.67;27.07
69187;BME280;56301;56.864;60.554;2023-12-29T07:31:53;95668.06;;;26.70;27.47
69187;BME280;56301;56.864;60.554;2023-12-29T07:34:15;95670.47;;;26.71;26.37
69187;BME280;56301;56.864;60.554;2023-12-29T07:36:38;95679.16;;;26.73;27.27
69187;BME280;56301;56.864;60.554;2023-12-29T07:39:01;95677.78;;;26.76;27.31
69187;BME280;56301;56.864;60.554;2023-12-29T07:41:23;95686.50;;;26.78;26.47
69187;BME280;56301;56.864;60.554;2023-12-29T07:43:45;95676.19;;;26.80;27.24
69187;BME280;56301;56.864;60.554;2023-12-29T07:46:08;95684.56;;;26.83;27.28
69187;BME280;56301;56.864;60.554;2023-12-29T07:48:30;95688.66;;;26.86;27.22
69187;BME280;56301;56.864;60.554;2023-12-29T07:50:53;95679.97;;;26.89;27.26
69187;BME280;56301;56.864;60.554;2023-12-29T07:53:15;95685.09;;;26.91;27.24
69187;BME280;56301;56.864;60.554;2023-12-29T07:55:38;95679.94;;;26.94;27.04
69187;BME280;56301;56.864;60.554;2023-12-29T07:58:00;95699.50;;;26.96;27.08
69187;BME280;56301;56.864;60.554;2023-12-29T08:00:23;95692.72;;;26.99;26.62
69187;BME280;56301;56.864;60.554;2023-12-29T08:02:45;95689.72;;;27.00;27.17
69187;BME280;56301;56.864;60.554;2023-12-29T08:05:08;95692.72;;;27.04;27.21
69187;BME280;56301;56.864;60.554;2023-12-29T08:07:30;95690.25;;;27.07;26.47
69187;BME280;56301;56.864;60.554;2023-12-29T08:09:53;95688.09;;;27.09;27.12
69187;BME280;56301;56.864;60.554;2023-12-29T08:12:15;95683.22;;;27.11;26.45
69187;BME280;56301;56.864;60.554;2023-12-29T08:14:38;95690.81;;;27.15;26.78
69187;BME280;56301;56.864;60.554;2023-12-29T08:17:01;95688.66;;;27.17;26.97
69187;BME280;56301;56.864;60.554;2023-12-29T08:19:23;95690.00;;;27.19;26.78
69187;BME280;56301;56.864;60.554;2023-12-29T08:21:46;95690.56;;;27.21;26.64
69187;BME280;56301;56.864;60.554;2023-12-29T08:24:08;95692.16;;;27.22;27.57
69187;BME280;56301;56.864;60.554;2023-12-29T08:26:31;95686.47;;;27.24;26.67
69187;BME280;56301;56.864;60.554;2023-12-29T08:28:53;95692.44;;;27.26;27.51
69187;BME280;56301;56.864;60.554;2023-12-29T08:31:16;95687.81;;;27.26;26.79
69187;BME280;56301;56.864;60.554;2023-12-29T08:33:38;95688.38;;;27.28;27.14
69187;BME280;56301;56.864;60.554;2023-12-29T08:36:03;95682.66;;;27.30;27.43
69187;BME280;56301;56.864;60.554;2023-12-29T08:38:26;95685.09;;;27.31;26.90
69187;BME280;56301;56.864;60.554;2023-12-29T08:40:48;95686.72;;;27.32;27.38
69187;BME280;56301;56.864;60.554;2023-12-29T08:43:11;95678.28;;;27.34;26.89
69187;BME280;56301;56.864;60.554;2023-12-29T08:45:33;95679.94;;;27.35;27.50
69187;BME280;56301;56.864;60.554;2023-12-29T08:47:56;95673.41;;;27.36;26.58
69187;BME280;56301;56.864;60.554;2023-12-29T08:50:18;95671.50;;;27.36;27.26
69187;BME280;56301;56.864;60.554;2023-12-29T08:52:41;95672.31;;;27.37;26.30
69187;BME280;56301;56.864;60.554;2023-12-29T08:55:04;95679.41;;;27.38;26.05
69187;BME280;56301;56.864;60.554;2023-12-29T08:57:26;95680.47;;;27.37;26.55
69187;BME280;56301;56.864;60.554;2023-12-29T08:59:49;95682.91;;;27.39;27.06
69187;BME280;56301;56.864;60.554;2023-12-29T09:02:11;95680.22;;;27.39;26.58
69187;BME280;56301;56.864;60.554;2023-12-29T09:04:34;95687.53;;;27.38;27.35
69187;BME280;56301;56.864;60.554;2023-12-29T09:06:56;95693.78;;;27.39;27.35
69187;BME280;56301;56.864;60.554;2023-12-29T09:09:19;95697.31;;;27.39;26.46
69187;BME280;56301;56.864;60.554;2023-12-29T09:11:42;95695.69;;;27.38;26.93
69187;BME280;56301;56.864;60.554;2023-12-29T09:14:04;95684.00;;;27.38;26.80
69187;BME280;56301;56.864;60.554;2023-12-29T09:16:27;95692.13;;;27.38;26.77
69187;BME280;56301;56.864;60.554;2023-12-29T09:18:49;95690.25;;;27.38;26.75
69187;BME280;56301;56.864;60.554;2023-12-29T09:21:12;95687.78;;;27.36;26.42
69187;BME280;56301;56.864;60.554;2023-12-29T09:23:34;95699.47;;;27.37;26.24
69187;BME280;56301;56.864;60.554;2023-12-29T09:25:57;95694.31;;;27.35;25.36
69187;BME280;56301;56.864;60.554;2023-12-29T09:28:19;95690.81;;;27.35;25.88
69187;BME280;56301;56.864;60.554;2023-12-29T09:30:42;95704.38;;;27.35;26.12
69187;BME280;56301;56.864;60.554;2023-12-29T09:33:04;95694.59;;;27.34;25.41
69187;BME280;56301;56.864;60.554;2023-12-29T09:35:27;95694.59;;;27.34;26.36
69187;BME280;56301;56.864;60.554;2023-12-29T09:37:50;95692.97;;;27.33;26.16
69187;BME280;56301;56.864;60.554;2023-12-29T09:40:12;95700.31;;;27.32;25.60
69187;BME280;56301;56.864;60.554;2023-12-29T09:42:35;95685.09;;;27.31;25.40
69187;BME280;56301;56.864;60.554;2023-12-29T09:44:59;95700.59;;;27.31;26.36
69187;BME280;56301;56.864;60.554;2023-12-29T09:47:24;95704.38;;;27.30;25.90
69187;BME280;56301;56.864;60.554;2023-12-29T09:49:47;95706.28;;;27.29;25.46
69187;BME280;56301;56.864;60.554;2023-12-29T09:52:10;95707.38;;;27.28;26.23
69187;BME280;56301;56.864;60.554;2023-12-29T09:54:34;95701.13;;;27.28;25.40
69187;BME280;56301;56.864;60.554;2023-12-29T09:56:57;95699.47;;;27.27;25.90
69187;BME280;56301;56.864;60.554;2023-12-29T09:59:20;95698.66;;;27.26;25.43
69187;BME280;56301;56.864;60.554;2023-12-29T10:01:44;95703.28;;;27.26;26.10
69187;BME280;56301;56.864;60.554;2023-12-29T10:04:07;95698.97;;;27.25;25.74
69187;BME280;56301;56.864;60.554;2023-12-29T10:06:31;95694.34;;;27.25;26.08
69187;BME280;56301;56.864;60.554;2023-12-29T10:08:56;95692.97;;;27.23;26.18
69187;BME280;56301;56.864;60.554;2023-12-29T10:11:23;95692.97;;;27.23;25.87
69187;BME280;56301;56.864;60.554;2023-12-29T10:13:46;95704.13;;;27.21;26.25
69187;BME280;56301;56.864;60.554;2023-12-29T10:18:51;95703.31;;;27.21;25.99
69187;BME280;56301;56.864;60.554;2023-12-29T10:21:28;95701.66;;;27.20;25.45
69187;BME280;56301;56.864;60.554;2023-12-29T10:23:56;95694.63;;;27.19;26.38
69187;BME280;56301;56.864;60.554;2023-12-29T10:26:20;95695.44;;;27.19;26.06
69187;BME280;56301;56.864;60.554;2023-12-29T10:28:43;95690.28;;;27.18;26.50
69187;BME280;56301;56.864;60.554;2023-12-29T10:31:06;95699.53;;;27.17;25.44
69187;BME280;56301;56.864;60.554;2023-12-29T10:33:28;95695.16;;;27.16;25.50
69187;BME280;56301;56.864;60.554;2023-12-29T10:36:00;95700.59;;;27.16;25.73
69187;BME280;56301;56.864;60.554;2023-12-29T10:38:23;95710.63;;;27.15;25.16
69187;BME280;56301;56.864;60.554;2023-12-29T10:40:45;95695.44;;;27.14;26.10
69187;BME280;56301;56.864;60.554;2023-12-29T10:43:08;95709.81;;;27.15;26.50
69187;BME280;56301;56.864;60.554;2023-12-29T10:45:30;95707.66;;;27.11;26.68
69187;BME280;56301;56.864;60.554;2023-12-29T10:47:53;95717.44;;;27.13;25.45
69187;BME280;56301;56.864;60.554;2023-12-29T10:50:17;95709.53;;;27.11;25.87
69187;BME280;56301;56.864;60.554;2023-12-29T10:52:40;95718.75;;;27.10;25.23
69187;BME280;56301;56.864;60.554;2023-12-29T10:55:09;95721.47;;;27.10;25.51
69187;BME280;56301;56.864;60.554;2023-12-29T10:57:32;95719.84;;;27.09;25.82
69187;BME280;56301;56.864;60.554;2023-12-29T10:59:54;95728.00;;;27.09;25.79
69187;BME280;56301;56.864;60.554;2023-12-29T11:02:17;95729.88;;;27.08;25.69
69187;BME280;56301;56.864;60.554;2023-12-29T11:04:40;95727.44;;;27.07;25.81
69187;BME280;56301;56.864;60.554;2023-12-29T11:07:03;95734.50;;;27.08;26.38
69187;BME280;56301;56.864;60.554;2023-12-29T11:09:29;95732.06;;;27.06;26.31
69187;BME280;56301;56.864;60.554;2023-12-29T11:11:52;95746.44;;;27.07;26.21
69187;BME280;56301;56.864;60.554;2023-12-29T11:14:14;95751.06;;;27.06;25.89
69187;BME280;56301;56.864;60.554;2023-12-29T11:16:37;95735.88;;;27.05;26.33
69187;BME280;56301;56.864;60.554;2023-12-29T11:19:00;95750.50;;;27.04;25.57
69187;BME280;56301;56.864;60.554;2023-12-29T11:21:24;95743.47;;;27.03;25.51
69187;BME280;56301;56.864;60.554;2023-12-29T11:23:48;95740.75;;;27.03;26.38
69187;BME280;56301;56.864;60.554;2023-12-29T11:26:10;95737.22;;;27.03;25.51
69187;BME280;56301;56.864;60.554;2023-12-29T11:28:33;95747.25;;;27.02;26.06
69187;BME280;56301;56.864;60.554;2023-12-29T11:30:56;95740.19;;;27.01;25.62
69187;BME280;56301;56.864;60.554;2023-12-29T11:33:21;95740.19;;;27.01;25.99
69187;BME280;56301;56.864;60.554;2023-12-29T11:36:08;95739.38;;;27.01;26.38
69187;BME280;56301;56.864;60.554;2023-12-29T11:43:37;95747.25;;;26.97;26.40
69187;BME280;56301;56.864;60.554;2023-12-29T11:46:00;95744.53;;;26.97;26.20
69187;BME280;56301;56.864;60.554;2023-12-29T11:51:26;95742.09;;;26.96;25.47
69187;BME280;56301;56.864;60.554;2023-12-29T11:53:46;95742.09;;;26.96;26.08
69187;BME280;56301;56.864;60.554;2023-12-29T11:56:17;95733.41;;;26.94;26.46
69187;BME280;56301;56.864;60.554;2023-12-29T11:58:40;95744.25;;;26.94;26.36
69187;BME280;56301;56.864;60.554;2023-12-29T12:01:02;95740.75;;;26.93;26.64
69187;BME280;56301;56.864;60.554;2023-12-29T12:03:26;95748.88;;;26.93;26.44
69187;BME280;56301;56.864;60.554;2023-12-29T12:05:49;95763.53;;;26.92;26.17
69187;BME280;56301;56.864;60.554;2023-12-29T12:08:19;95763.53;;;26.92;26.46
69187;BME280;56301;56.864;60.554;2023-12-29T12:10:48;95768.97;;;26.92;26.68
69187;BME280;56301;56.864;60.554;2023-12-29T12:13:11;95775.47;;;26.91;25.92
69187;BME280;56301;56.864;60.554;2023-12-29T12:15:33;95770.31;;;26.89;26.59
69187;BME280;56301;56.864;60.554;2023-12-29T12:17:56;95779.25;;;26.90;26.16
69187;BME280;56301;56.864;60.554;2023-12-29T12:20:19;95764.88;;;26.89;26.25
69187;BME280;56301;56.864;60.554;2023-12-29T12:22:42;95774.91;;;26.89;26.09
69187;BME280;56301;56.864;60.554;2023-12-29T12:25:06;95782.25;;;26.88;26.93
69187;BME280;56301;56.864;60.554;2023-12-29T12:27:28;95767.06;;;26.87;26.40
69187;BME280;56301;56.864;60.554;2023-12-29T12:29:55;95776.03;;;26.88;26.81
69187;BME280;56301;56.864;60.554;2023-12-29T12:32:18;95771.66;;;26.87;26.77
69187;BME280;56301;56.864;60.554;2023-12-29T12:34:40;95772.50;;;26.87;25.87
69187;BME280;56301;56.864;60.554;2023-12-29T12:37:03;95781.69;;;26.86;26.69
69187;BME280;56301;56.864;60.554;2023-12-29T12:39:37;95775.47;;;26.86;26.66